createdAt,value
2017-10-17T00:00:05.321Z,67.4
2017-10-17T00:00:45.767Z,67.78
2017-10-17T00:01:26.188Z,67.4
2017-10-17T00:02:06.631Z,67.97
2017-10-17T00:02:47.083Z,67.78
2017-10-17T00:03:27.522Z,68.07
2017-10-17T00:05:20.151Z,67.88
2017-10-17T00:06:00.626Z,68.07
2017-10-17T00:06:41.146Z,67.97
2017-10-17T00:07:21.672Z,67.97
2017-10-17T00:08:02.204Z,67.78
2017-10-17T00:08:42.577Z,67.97
2017-10-17T00:09:22.993Z,67.97
2017-10-17T00:10:03.395Z,67.97
2017-10-17T00:10:43.935Z,67.78
2017-10-17T00:11:24.402Z,67.78
2017-10-17T00:12:04.896Z,67.78
2017-10-17T00:12:45.362Z,67.97
2017-10-17T00:13:25.797Z,67.78
2017-10-17T00:14:06.340Z,67.88
2017-10-17T00:14:46.727Z,67.88
2017-10-17T00:15:27.197Z,67.97
2017-10-17T00:16:07.719Z,67.88
2017-10-17T00:16:48.158Z,67.69
2017-10-17T00:17:28.592Z,67.69
2017-10-17T00:18:09.077Z,67.97
2017-10-17T00:18:49.598Z,67.88
2017-10-17T00:19:30.040Z,67.97
2017-10-17T00:20:10.589Z,67.88
2017-10-17T00:20:51.072Z,67.69
2017-10-17T00:21:31.525Z,67.88
2017-10-17T00:22:11.978Z,67.78
2017-10-17T00:22:52.480Z,67.97
2017-10-17T00:23:32.965Z,67.78
2017-10-17T00:24:13.409Z,67.78
2017-10-17T00:24:53.844Z,67.78
2017-10-17T00:25:34.401Z,67.88
2017-10-17T00:26:14.874Z,67.69
2017-10-17T00:26:55.392Z,67.78
2017-10-17T00:27:35.887Z,67.78
2017-10-17T00:28:16.394Z,67.78
2017-10-17T00:28:56.878Z,67.69
2017-10-17T00:29:37.373Z,67.49
2017-10-17T00:30:17.772Z,67.97
2017-10-17T00:30:58.207Z,67.69
2017-10-17T00:31:38.679Z,67.78
2017-10-17T00:32:19.155Z,67.88
2017-10-17T00:32:59.637Z,67.97
2017-10-17T00:33:40.095Z,67.65
2017-10-17T00:34:20.615Z,67.88
2017-10-17T00:35:01.142Z,68.07
2017-10-17T00:35:41.594Z,67.97
2017-10-17T00:36:22.061Z,67.97
2017-10-17T00:37:02.538Z,68.04
2017-10-17T00:37:42.978Z,67.97
2017-10-17T00:38:23.430Z,67.97
2017-10-17T00:39:03.912Z,67.94
2017-10-17T00:39:44.352Z,68.07
2017-10-17T00:40:24.885Z,68.13
2017-10-17T00:41:05.299Z,68.07
2017-10-17T00:41:45.698Z,68.04
2017-10-17T00:42:26.125Z,68.07
2017-10-17T00:43:06.532Z,67.94
2017-10-17T00:43:47.013Z,68.04
2017-10-17T00:46:00.767Z,67.78
2017-10-17T00:46:41.354Z,68.04
2017-10-17T00:47:21.792Z,67.75
2017-10-17T00:48:02.204Z,67.75
2017-10-17T00:48:42.660Z,67.85
2017-10-17T00:49:23.131Z,67.85
2017-10-17T00:50:03.767Z,67.85
2017-10-17T00:50:44.247Z,67.65
2017-10-17T00:51:24.674Z,67.94
2017-10-17T00:52:05.140Z,67.85
2017-10-17T00:52:45.652Z,67.94
2017-10-17T00:53:26.122Z,68.13
2017-10-17T00:54:06.539Z,68.04
2017-10-17T00:54:46.974Z,67.94
2017-10-17T00:55:27.406Z,67.85
2017-10-17T00:56:07.850Z,67.94
2017-10-17T00:56:48.236Z,68.04
2017-10-17T00:57:28.697Z,67.85
2017-10-17T00:58:09.167Z,67.94
2017-10-17T00:58:49.689Z,67.88
2017-10-17T00:59:30.249Z,68.04
2017-10-17T01:00:10.731Z,67.97
2017-10-17T01:00:51.208Z,67.85
2017-10-17T01:01:31.604Z,67.69
2017-10-17T01:02:12.112Z,67.97
2017-10-17T01:02:52.560Z,68.04
2017-10-17T01:03:33.022Z,68.04
2017-10-17T01:04:13.390Z,67.97
2017-10-17T01:04:53.821Z,67.88
2017-10-17T01:05:34.254Z,67.85
2017-10-17T01:06:14.625Z,67.94
2017-10-17T01:06:55.123Z,67.97
2017-10-17T01:07:35.493Z,67.88
2017-10-17T01:08:15.881Z,67.94
2017-10-17T01:08:56.320Z,67.85
2017-10-17T01:09:36.751Z,67.85
2017-10-17T01:10:17.199Z,67.88
2017-10-17T01:10:57.631Z,67.85
2017-10-17T01:11:38.119Z,67.88
2017-10-17T01:12:18.513Z,67.85
2017-10-17T01:12:58.940Z,67.85
2017-10-17T01:13:39.336Z,67.94
2017-10-17T01:14:19.769Z,67.75
2017-10-17T01:15:00.229Z,67.75
2017-10-17T01:15:40.744Z,67.85
2017-10-17T01:16:21.229Z,67.75
2017-10-17T01:17:01.759Z,67.85
2017-10-17T01:17:42.248Z,67.75
2017-10-17T01:18:22.721Z,67.65
2017-10-17T01:19:03.124Z,67.69
2017-10-17T01:19:43.543Z,68.04
2017-10-17T01:20:23.984Z,68.04
2017-10-17T01:21:04.370Z,67.85
2017-10-17T01:21:44.842Z,67.75
2017-10-17T01:22:25.289Z,67.85
2017-10-17T01:23:05.772Z,67.94
2017-10-17T01:23:46.202Z,67.85
2017-10-17T01:24:26.637Z,67.85
2017-10-17T01:25:07.185Z,67.85
2017-10-17T01:25:47.595Z,67.65
2017-10-17T01:26:27.981Z,68.04
2017-10-17T01:27:08.411Z,67.94
2017-10-17T01:27:48.935Z,67.65
2017-10-17T01:28:29.347Z,67.85
2017-10-17T01:29:09.794Z,67.65
2017-10-17T01:29:50.268Z,67.65
2017-10-17T01:30:30.716Z,67.65
2017-10-17T01:31:11.174Z,67.65
2017-10-17T01:31:51.648Z,67.65
2017-10-17T01:32:32.089Z,68.23
2017-10-17T01:33:12.553Z,67.75
2017-10-17T01:33:53.016Z,68.04
2017-10-17T01:34:33.450Z,67.65
2017-10-17T01:35:13.919Z,67.75
2017-10-17T01:35:54.400Z,68.33
2017-10-17T01:36:34.833Z,67.75
2017-10-17T01:37:15.310Z,67.65
2017-10-17T01:37:55.842Z,68.04
2017-10-17T01:38:36.308Z,68.33
2017-10-17T01:39:16.833Z,68.33
2017-10-17T01:39:57.434Z,68.04
2017-10-17T01:40:37.885Z,68.33
2017-10-17T01:41:18.330Z,68.13
2017-10-17T01:41:58.788Z,68.43
2017-10-17T01:42:39.250Z,68.04
2017-10-17T01:43:19.629Z,68.43
2017-10-17T01:44:00.120Z,68.33
2017-10-17T01:44:40.590Z,68.43
2017-10-17T01:45:21.125Z,68.33
2017-10-17T01:46:01.623Z,68.33
2017-10-17T01:46:42.171Z,68.43
2017-10-17T01:47:22.666Z,68.33
2017-10-17T01:48:03.112Z,68.43
2017-10-17T01:48:43.539Z,68.43
2017-10-17T01:49:24.008Z,68.43
2017-10-17T01:50:04.409Z,68.33
2017-10-17T01:50:44.783Z,68.33
2017-10-17T01:51:25.262Z,68.43
2017-10-17T01:52:05.694Z,68.43
2017-10-17T01:52:46.125Z,68.33
2017-10-17T01:53:26.651Z,68.33
2017-10-17T01:54:07.184Z,68.52
2017-10-17T01:54:47.676Z,68.33
2017-10-17T01:55:28.133Z,68.43
2017-10-17T01:56:08.597Z,68.43
2017-10-17T01:56:49.056Z,68.13
2017-10-17T01:57:29.508Z,68.33
2017-10-17T01:58:09.977Z,68.13
2017-10-17T01:58:50.438Z,68.13
2017-10-17T01:59:30.876Z,68.13
2017-10-17T02:00:11.284Z,68.04
2017-10-17T02:00:51.690Z,68.13
2017-10-17T02:01:32.149Z,68.13
2017-10-17T02:02:12.649Z,68.13
2017-10-17T02:02:53.131Z,68.04
2017-10-17T02:03:33.588Z,68.13
2017-10-17T02:04:14.113Z,68.04
2017-10-17T02:04:54.662Z,68.33
2017-10-17T02:05:35.098Z,68.23
2017-10-17T02:06:15.496Z,68.13
2017-10-17T02:06:55.948Z,68.23
2017-10-17T02:07:36.425Z,68.23
2017-10-17T02:08:16.869Z,68.13
2017-10-17T02:08:57.334Z,68.13
2017-10-17T02:09:37.794Z,67.94
2017-10-17T02:10:18.248Z,68.13
2017-10-17T02:10:58.622Z,68.13
2017-10-17T02:11:39.059Z,68.04
2017-10-17T02:12:19.496Z,68.33
2017-10-17T02:13:00.007Z,68.33
2017-10-17T02:13:40.403Z,68.33
2017-10-17T02:14:20.863Z,68.04
2017-10-17T02:15:01.265Z,68.13
2017-10-17T02:15:41.672Z,68.13
2017-10-17T02:16:22.247Z,68.13
2017-10-17T02:17:02.666Z,68.13
2017-10-17T02:17:43.134Z,67.94
2017-10-17T02:18:23.561Z,68.13
2017-10-17T02:19:03.990Z,67.94
2017-10-17T02:19:44.435Z,68.13
2017-10-17T02:20:24.889Z,68.13
2017-10-17T02:21:05.322Z,68.04
2017-10-17T02:21:45.684Z,68.13
2017-10-17T02:22:26.102Z,68.13
2017-10-17T02:23:06.494Z,68.04
2017-10-17T02:23:46.906Z,68.13
2017-10-17T02:24:27.325Z,68.04
2017-10-17T02:25:07.774Z,68.13
2017-10-17T02:25:48.978Z,68.13
2017-10-17T02:26:29.457Z,68.04
2017-10-17T02:28:27.117Z,68.13
2017-10-17T02:29:07.583Z,68.33
2017-10-17T02:29:48.022Z,68.33
2017-10-17T02:30:28.441Z,68.13
2017-10-17T02:31:08.871Z,68.13
2017-10-17T02:31:49.320Z,68.33
2017-10-17T02:32:29.739Z,68.13
2017-10-17T02:33:10.259Z,68.04
2017-10-17T02:33:50.754Z,67.94
2017-10-17T02:34:31.252Z,68.13
2017-10-17T02:35:11.748Z,68.13
2017-10-17T02:35:52.199Z,68.04
2017-10-17T02:36:32.699Z,68.33
2017-10-17T02:37:13.116Z,68.33
2017-10-17T02:37:53.511Z,68.33
2017-10-17T02:38:33.987Z,68.43
2017-10-17T02:39:14.462Z,68.33
2017-10-17T02:39:55.000Z,68.13
2017-10-17T02:42:12.991Z,67.75
2017-10-17T02:42:53.418Z,67.65
2017-10-17T02:43:33.876Z,67.94
2017-10-17T02:44:14.294Z,68.13
2017-10-17T02:44:54.725Z,67.75
2017-10-17T02:45:35.182Z,67.94
2017-10-17T02:46:15.580Z,67.85
2017-10-17T02:46:55.997Z,67.75
2017-10-17T02:47:36.423Z,68.04
2017-10-17T02:48:16.863Z,68.13
2017-10-17T02:48:57.261Z,67.65
2017-10-17T02:51:15.132Z,67.94
2017-10-17T02:51:55.597Z,67.94
2017-10-17T02:52:36.060Z,68.04
2017-10-17T02:53:16.514Z,67.75
2017-10-17T02:53:56.964Z,67.75
2017-10-17T02:54:37.411Z,67.85
2017-10-17T02:55:17.866Z,67.75
2017-10-17T02:55:58.318Z,67.85
2017-10-17T02:56:38.773Z,67.94
2017-10-17T02:57:19.240Z,67.94
2017-10-17T02:57:59.695Z,68.13
2017-10-17T02:58:40.167Z,68.04
2017-10-17T02:59:20.643Z,68.04
2017-10-17T03:00:01.097Z,68.04
2017-10-17T03:00:41.552Z,67.85
2017-10-17T03:01:22.006Z,68.13
2017-10-17T03:02:02.465Z,67.94
2017-10-17T03:02:42.909Z,67.85
2017-10-17T03:03:23.371Z,67.75
2017-10-17T03:04:03.820Z,67.94
2017-10-17T03:04:44.272Z,68.33
2017-10-17T03:05:24.731Z,67.85
2017-10-17T03:06:05.183Z,67.94
2017-10-17T03:06:45.635Z,67.85
2017-10-17T03:07:26.093Z,67.85
2017-10-17T03:08:06.546Z,67.85
2017-10-17T03:08:46.998Z,67.75
2017-10-17T03:09:27.449Z,67.75
2017-10-17T03:10:07.902Z,67.85
2017-10-17T03:10:48.345Z,67.75
2017-10-17T03:11:28.804Z,67.85
2017-10-17T03:12:09.244Z,67.75
2017-10-17T03:12:49.701Z,67.75
2017-10-17T03:13:30.152Z,67.75
2017-10-17T03:14:10.608Z,67.85
2017-10-17T03:14:51.072Z,67.94
2017-10-17T03:15:31.532Z,67.85
2017-10-17T03:16:11.995Z,67.75
2017-10-17T03:16:52.440Z,67.94
2017-10-17T03:17:32.981Z,67.85
2017-10-17T03:18:13.432Z,68.04
2017-10-17T03:18:53.920Z,67.75
2017-10-17T03:19:34.381Z,67.75
2017-10-17T03:20:14.835Z,67.94
2017-10-17T03:20:55.295Z,68.04
2017-10-17T03:21:35.744Z,67.75
2017-10-17T03:22:16.191Z,67.85
2017-10-17T03:22:56.643Z,67.75
2017-10-17T03:23:37.095Z,67.94
2017-10-17T03:24:17.542Z,67.94
2017-10-17T03:24:57.991Z,67.85
2017-10-17T03:25:38.444Z,67.94
2017-10-17T03:26:18.912Z,68.04
2017-10-17T03:26:59.370Z,68.04
2017-10-17T03:27:39.826Z,67.75
2017-10-17T03:28:20.274Z,67.75
2017-10-17T03:29:00.731Z,67.85
2017-10-17T03:29:41.176Z,67.94
2017-10-17T03:30:21.631Z,68.04
2017-10-17T03:31:02.085Z,67.94
2017-10-17T03:31:42.544Z,67.85
2017-10-17T03:32:22.985Z,67.65
2017-10-17T03:33:03.439Z,67.85
2017-10-17T03:33:43.895Z,68.04
2017-10-17T03:34:24.354Z,67.75
2017-10-17T03:35:04.808Z,67.75
2017-10-17T03:35:45.260Z,67.75
2017-10-17T03:36:25.726Z,67.75
2017-10-17T03:37:06.180Z,68.04
2017-10-17T03:37:46.627Z,67.75
2017-10-17T03:38:27.078Z,67.94
2017-10-17T03:39:07.526Z,67.94
2017-10-17T03:39:47.982Z,67.85
2017-10-17T03:40:28.442Z,67.75
2017-10-17T03:41:08.897Z,68.04
2017-10-17T03:41:49.351Z,67.75
2017-10-17T03:42:29.802Z,67.75
2017-10-17T03:43:10.262Z,67.75
2017-10-17T03:43:50.709Z,68.04
2017-10-17T03:44:31.162Z,67.75
2017-10-17T03:45:11.610Z,68.04
2017-10-17T03:45:52.058Z,67.85
2017-10-17T03:46:32.523Z,67.94
2017-10-17T03:47:12.971Z,67.94
2017-10-17T03:47:53.425Z,67.85
2017-10-17T03:48:33.891Z,67.85
2017-10-17T03:49:14.344Z,68.04
2017-10-17T03:49:54.803Z,67.94
2017-10-17T03:50:35.266Z,67.94
2017-10-17T03:51:15.719Z,67.75
2017-10-17T03:51:56.169Z,67.94
2017-10-17T03:52:36.624Z,67.36
2017-10-17T03:53:17.091Z,67.55
2017-10-17T03:53:57.554Z,67.55
2017-10-17T03:54:37.997Z,67.36
2017-10-17T03:55:18.447Z,67.27
2017-10-17T03:55:58.896Z,67.07
2017-10-17T03:56:39.349Z,66.97
2017-10-17T03:57:19.803Z,66.88
2017-10-17T03:58:00.264Z,67.17
2017-10-17T03:58:40.687Z,66.78
2017-10-17T03:59:21.159Z,66.59
2017-10-17T04:00:01.594Z,66.88
2017-10-17T04:00:42.042Z,66.2
2017-10-17T04:01:22.482Z,66.49
2017-10-17T04:02:02.947Z,66.3
2017-10-17T04:02:43.380Z,66.2
2017-10-17T04:03:23.835Z,66.2
2017-10-17T04:04:04.301Z,66.49
2017-10-17T04:04:44.752Z,66.49
2017-10-17T04:05:25.201Z,66.53
2017-10-17T04:06:05.650Z,65.91
2017-10-17T04:06:46.101Z,65.66
2017-10-17T04:07:26.548Z,65.66
2017-10-17T04:08:07.015Z,65.63
2017-10-17T04:08:47.462Z,66.01
2017-10-17T04:09:27.891Z,65.91
2017-10-17T04:10:08.434Z,66.01
2017-10-17T04:10:48.860Z,65.82
2017-10-17T04:11:29.313Z,66.2
2017-10-17T04:12:09.762Z,66.01
2017-10-17T04:12:50.216Z,66.14
2017-10-17T04:13:30.670Z,65.91
2017-10-17T04:14:11.112Z,65.91
2017-10-17T04:14:51.562Z,65.53
2017-10-17T04:15:32.005Z,65.47
2017-10-17T04:16:12.456Z,65.66
2017-10-17T04:16:52.940Z,65.43
2017-10-17T04:17:33.377Z,65.53
2017-10-17T04:18:13.836Z,65.43
2017-10-17T04:18:54.280Z,65.43
2017-10-17T04:19:34.730Z,65.72
2017-10-17T04:20:15.191Z,65.53
2017-10-17T04:20:55.642Z,65.72
2017-10-17T04:21:36.098Z,65.53
2017-10-17T04:22:16.545Z,65.34
2017-10-17T04:22:56.995Z,65.14
2017-10-17T04:23:37.446Z,65.34
2017-10-17T04:24:17.928Z,65.53
2017-10-17T04:24:58.346Z,65.56
2017-10-17T04:25:38.795Z,65.34
2017-10-17T04:26:19.242Z,65.34
2017-10-17T04:26:59.706Z,65.34
2017-10-17T04:27:40.162Z,65.08
2017-10-17T04:28:21.723Z,65.17
2017-10-17T04:29:02.181Z,65.17
2017-10-17T04:29:42.637Z,65.34
2017-10-17T04:30:23.101Z,65.37
2017-10-17T04:31:03.644Z,65.37
2017-10-17T04:31:43.964Z,65.27
2017-10-17T04:32:24.419Z,65.27
2017-10-17T04:33:04.871Z,65.47
2017-10-17T04:33:45.325Z,64.79
2017-10-17T04:34:25.772Z,65.17
2017-10-17T04:35:06.231Z,65.08
2017-10-17T04:35:46.685Z,64.69
2017-10-17T04:36:27.147Z,64.79
2017-10-17T04:37:07.593Z,64.79
2017-10-17T04:37:48.050Z,65.08
2017-10-17T04:38:28.499Z,64.79
2017-10-17T04:39:08.945Z,64.98
2017-10-17T04:39:49.404Z,64.59
2017-10-17T04:40:29.862Z,64.69
2017-10-17T04:41:10.319Z,64.59
2017-10-17T04:41:50.769Z,64.59
2017-10-17T04:42:31.230Z,64.5
2017-10-17T04:43:11.695Z,64.69
2017-10-17T04:43:52.148Z,64.79
2017-10-17T04:44:32.597Z,64.69
2017-10-17T04:45:13.065Z,64.59
2017-10-17T04:45:53.532Z,64.89
2017-10-17T04:46:33.963Z,64.89
2017-10-17T04:47:14.401Z,64.69
2017-10-17T04:47:54.879Z,64.69
2017-10-17T04:48:35.332Z,64.69
2017-10-17T04:49:15.779Z,64.89
2017-10-17T04:49:56.248Z,64.69
2017-10-17T04:50:36.689Z,64.89
2017-10-17T04:51:17.149Z,64.98
2017-10-17T04:51:57.602Z,64.89
2017-10-17T04:52:38.055Z,64.89
2017-10-17T04:53:18.503Z,64.98
2017-10-17T04:53:58.952Z,64.69
2017-10-17T04:54:39.438Z,64.69
2017-10-17T04:55:19.935Z,64.98
2017-10-17T04:56:00.366Z,64.69
2017-10-17T04:56:40.809Z,64.79
2017-10-17T04:57:21.256Z,64.59
2017-10-17T04:58:01.709Z,64.59
2017-10-17T04:58:42.161Z,64.89
2017-10-17T04:59:22.612Z,64.89
2017-10-17T05:00:03.057Z,64.76
2017-10-17T05:00:43.524Z,64.79
2017-10-17T05:01:23.987Z,64.89
2017-10-17T05:02:04.443Z,64.59
2017-10-17T05:02:44.901Z,64.98
2017-10-17T05:03:25.350Z,64.69
2017-10-17T05:04:05.804Z,64.69
2017-10-17T05:04:46.258Z,64.59
2017-10-17T05:05:26.701Z,64.69
2017-10-17T05:06:07.151Z,64.79
2017-10-17T05:06:47.623Z,65.08
2017-10-17T05:07:28.071Z,64.89
2017-10-17T05:08:08.529Z,64.89
2017-10-17T05:08:48.991Z,64.89
2017-10-17T05:09:29.437Z,64.89
2017-10-17T05:10:09.909Z,64.59
2017-10-17T05:10:50.356Z,64.79
2017-10-17T05:11:30.815Z,64.69
2017-10-17T05:12:11.268Z,64.98
2017-10-17T05:12:51.726Z,64.69
2017-10-17T05:13:32.174Z,64.69
2017-10-17T05:14:12.638Z,64.69
2017-10-17T05:14:53.085Z,64.5
2017-10-17T05:15:33.540Z,64.5
2017-10-17T05:16:13.985Z,64.69
2017-10-17T05:16:54.453Z,64.59
2017-10-17T05:17:34.879Z,64.59
2017-10-17T05:18:15.326Z,64.69
2017-10-17T05:18:55.771Z,64.69
2017-10-17T05:19:36.226Z,64.59
2017-10-17T05:20:16.667Z,64.79
2017-10-17T05:20:57.123Z,64.5
2017-10-17T05:21:37.582Z,64.59
2017-10-17T05:22:18.034Z,64.69
2017-10-17T05:22:58.491Z,64.69
2017-10-17T05:23:38.933Z,64.59
2017-10-17T05:24:19.391Z,64.89
2017-10-17T05:24:59.840Z,64.69
2017-10-17T05:25:40.293Z,64.5
2017-10-17T05:26:20.751Z,64.5
2017-10-17T05:27:01.204Z,64.5
2017-10-17T05:27:41.674Z,64.69
2017-10-17T05:28:22.112Z,64.5
2017-10-17T05:29:02.567Z,64.5
2017-10-17T05:29:43.018Z,64.89
2017-10-17T05:30:23.477Z,64.5
2017-10-17T05:31:03.936Z,64.59
2017-10-17T05:31:44.384Z,64.5
2017-10-17T05:32:24.835Z,64.79
2017-10-17T05:33:05.281Z,64.69
2017-10-17T05:33:45.734Z,64.59
2017-10-17T05:34:26.186Z,64.5
2017-10-17T05:35:06.638Z,65.08
2017-10-17T05:35:47.084Z,64.59
2017-10-17T05:36:27.541Z,64.69
2017-10-17T05:37:07.994Z,64.79
2017-10-17T05:37:48.436Z,64.5
2017-10-17T05:38:28.892Z,64.5
2017-10-17T05:39:09.354Z,64.5
2017-10-17T05:39:49.809Z,64.59
2017-10-17T05:40:30.256Z,64.69
2017-10-17T05:41:10.707Z,64.98
2017-10-17T05:41:51.158Z,64.5
2017-10-17T05:42:31.609Z,64.89
2017-10-17T05:43:12.066Z,64.69
2017-10-17T05:43:52.517Z,64.69
2017-10-17T05:44:32.972Z,64.59
2017-10-17T05:45:13.422Z,64.69
2017-10-17T05:45:53.880Z,64.5
2017-10-17T05:46:34.343Z,64.5
2017-10-17T05:47:14.801Z,64.69
2017-10-17T05:47:55.258Z,64.69
2017-10-17T05:48:35.709Z,64.98
2017-10-17T05:49:16.168Z,64.89
2017-10-17T05:49:56.611Z,65.05
2017-10-17T05:50:37.065Z,65.17
2017-10-17T05:51:17.522Z,65.14
2017-10-17T05:51:57.967Z,65.14
2017-10-17T05:52:38.433Z,65.14
2017-10-17T05:53:18.910Z,64.95
2017-10-17T05:53:59.365Z,65.24
2017-10-17T05:54:39.823Z,65.34
2017-10-17T05:55:20.281Z,65.53
2017-10-17T05:56:00.738Z,65.43
2017-10-17T05:56:41.186Z,65.56
2017-10-17T05:57:21.646Z,65.34
2017-10-17T05:58:02.095Z,65.24
2017-10-17T05:58:42.559Z,65.43
2017-10-17T05:59:23.006Z,65.24
2017-10-17T06:00:03.457Z,65.14
2017-10-17T06:00:43.899Z,65.24
2017-10-17T06:01:24.350Z,65.53
2017-10-17T06:02:04.804Z,65.43
2017-10-17T06:02:45.248Z,65.53
2017-10-17T06:03:25.699Z,65.14
2017-10-17T06:04:06.142Z,65.14
2017-10-17T06:04:46.597Z,65.24
2017-10-17T06:05:27.053Z,65.43
2017-10-17T06:06:07.502Z,65.24
2017-10-17T06:06:47.954Z,65.24
2017-10-17T06:07:28.423Z,65.24
2017-10-17T06:08:08.873Z,65.24
2017-10-17T06:08:49.328Z,65.34
2017-10-17T06:09:29.777Z,65.14
2017-10-17T06:10:10.235Z,65.14
2017-10-17T06:10:50.685Z,65.34
2017-10-17T06:11:31.138Z,65.24
2017-10-17T06:12:11.593Z,65.37
2017-10-17T06:12:52.042Z,65.24
2017-10-17T06:13:32.503Z,65.53
2017-10-17T06:14:12.977Z,65.43
2017-10-17T06:14:53.432Z,65.34
2017-10-17T06:15:33.893Z,65.24
2017-10-17T06:16:14.348Z,65.24
2017-10-17T06:16:54.812Z,65.24
2017-10-17T06:17:35.264Z,65.24
2017-10-17T06:18:15.716Z,65.24
2017-10-17T06:18:56.178Z,65.14
2017-10-17T06:19:36.630Z,65.27
2017-10-17T06:20:17.086Z,65.14
2017-10-17T06:20:57.541Z,65.24
2017-10-17T06:21:37.995Z,65.14
2017-10-17T06:22:18.478Z,65.14
2017-10-17T06:22:58.934Z,65.24
2017-10-17T06:23:39.390Z,65.43
2017-10-17T06:24:19.838Z,65.34
2017-10-17T06:25:00.295Z,65.43
2017-10-17T06:25:40.754Z,65.43
2017-10-17T06:26:21.211Z,65.34
2017-10-17T06:27:01.660Z,65.14
2017-10-17T06:27:42.111Z,65.24
2017-10-17T06:28:22.576Z,65.24
2017-10-17T06:29:03.020Z,65.24
2017-10-17T06:29:43.473Z,65.27
2017-10-17T06:30:23.935Z,65.34
2017-10-17T06:31:04.385Z,65.53
2017-10-17T06:31:44.849Z,65.53
2017-10-17T06:32:25.308Z,65.24
2017-10-17T06:33:05.748Z,64.98
2017-10-17T06:33:46.209Z,65.05
2017-10-17T06:34:26.675Z,65.14
2017-10-17T06:35:07.138Z,65.14
2017-10-17T06:35:47.584Z,65.24
2017-10-17T06:36:28.043Z,64.69
2017-10-17T06:37:08.490Z,65.17
2017-10-17T06:37:48.940Z,65.08
2017-10-17T06:38:29.396Z,64.95
2017-10-17T06:39:09.845Z,65.17
2017-10-17T06:39:50.308Z,65.17
2017-10-17T06:40:30.761Z,65.08
2017-10-17T06:41:11.215Z,65.08
2017-10-17T06:41:51.683Z,65.08
2017-10-17T06:42:32.138Z,65.08
2017-10-17T06:43:12.587Z,64.89
2017-10-17T06:43:53.053Z,65.17
2017-10-17T06:44:33.494Z,65.08
2017-10-17T06:45:13.957Z,65.08
2017-10-17T06:45:54.382Z,64.79
2017-10-17T06:46:34.831Z,64.89
2017-10-17T06:47:15.293Z,64.89
2017-10-17T06:47:55.746Z,64.98
2017-10-17T06:48:36.208Z,64.89
2017-10-17T06:49:16.658Z,64.79
2017-10-17T06:49:57.113Z,64.89
2017-10-17T06:50:37.566Z,65.08
2017-10-17T06:51:18.023Z,64.69
2017-10-17T06:51:58.465Z,64.69
2017-10-17T06:52:38.919Z,64.69
2017-10-17T06:53:19.373Z,64.5
2017-10-17T06:53:59.818Z,64.59
2017-10-17T06:54:40.280Z,64.79
2017-10-17T06:55:20.747Z,64.79
2017-10-17T06:56:01.205Z,64.59
2017-10-17T06:56:41.664Z,64.59
2017-10-17T06:57:22.121Z,64.69
2017-10-17T06:58:02.577Z,64.89
2017-10-17T06:58:43.021Z,64.89
2017-10-17T06:59:23.471Z,65.08
2017-10-17T07:00:03.939Z,64.59
2017-10-17T07:00:44.393Z,64.5
2017-10-17T07:01:24.859Z,64.79
2017-10-17T07:02:05.337Z,64.79
2017-10-17T07:02:45.767Z,64.4
2017-10-17T07:03:26.214Z,64.79
2017-10-17T07:04:06.668Z,64.63
2017-10-17T07:04:47.106Z,64.59
2017-10-17T07:05:27.556Z,64.92
2017-10-17T07:06:08.005Z,64.82
2017-10-17T07:06:48.465Z,64.24
2017-10-17T07:07:28.916Z,64.34
2017-10-17T07:08:09.371Z,64.63
2017-10-17T07:08:49.840Z,63.85
2017-10-17T07:09:30.284Z,64.43
2017-10-17T07:10:10.726Z,64.24
2017-10-17T07:10:51.180Z,63.85
2017-10-17T07:11:34.010Z,63.66
2017-10-17T07:12:14.511Z,63.56
2017-10-17T07:12:54.975Z,63.47
2017-10-17T07:13:35.419Z,64.05
2017-10-17T07:14:15.903Z,63.76
2017-10-17T07:14:56.360Z,63.5
2017-10-17T07:15:36.813Z,63.5
2017-10-17T07:16:17.275Z,63.6
2017-10-17T07:16:57.712Z,63.11
2017-10-17T07:17:38.168Z,63.31
2017-10-17T07:18:18.628Z,63.11
2017-10-17T07:18:59.080Z,63.02
2017-10-17T07:19:39.629Z,63.21
2017-10-17T07:20:20.095Z,63.11
2017-10-17T07:21:00.543Z,63.11
2017-10-17T07:21:41.002Z,62.56
2017-10-17T07:22:21.463Z,62.85
2017-10-17T07:23:01.915Z,62.85
2017-10-17T07:23:42.380Z,62.82
2017-10-17T07:24:22.826Z,62.85
2017-10-17T07:25:03.283Z,62.66
2017-10-17T07:25:43.745Z,62.47
2017-10-17T07:26:24.202Z,62.37
2017-10-17T07:27:04.657Z,62.27
2017-10-17T07:27:45.314Z,62.76
2017-10-17T07:28:25.766Z,62.66
2017-10-17T07:29:06.221Z,62.08
2017-10-17T07:29:46.672Z,62.08
2017-10-17T07:30:27.128Z,62.37
2017-10-17T07:31:07.582Z,62.27
2017-10-17T07:31:48.035Z,62.18
2017-10-17T07:32:28.488Z,62.47
2017-10-17T07:33:08.937Z,62.11
2017-10-17T07:33:49.388Z,62.3
2017-10-17T07:34:29.848Z,62.5
2017-10-17T07:35:10.304Z,62.21
2017-10-17T07:35:50.763Z,61.72
2017-10-17T07:36:31.214Z,61.92
2017-10-17T07:37:11.670Z,61.82
2017-10-17T07:37:52.121Z,61.53
2017-10-17T07:38:32.570Z,61.53
2017-10-17T07:39:13.032Z,61.43
2017-10-17T07:39:53.481Z,61.63
2017-10-17T07:40:33.955Z,61.82
2017-10-17T07:41:14.399Z,61.82
2017-10-17T07:41:54.857Z,61.63
2017-10-17T07:42:35.322Z,61.72
2017-10-17T07:43:15.771Z,61.24
2017-10-17T07:43:56.236Z,61.08
2017-10-17T07:44:36.689Z,61.36
2017-10-17T07:45:17.136Z,60.78
2017-10-17T07:45:57.592Z,61.08
2017-10-17T07:46:38.042Z,60.98
2017-10-17T07:47:18.501Z,60.98
2017-10-17T07:47:58.955Z,61.27
2017-10-17T07:48:39.412Z,60.78
2017-10-17T07:49:19.857Z,61.27
2017-10-17T07:50:00.312Z,61.08
2017-10-17T07:50:40.762Z,61.18
2017-10-17T07:51:21.222Z,60.59
2017-10-17T07:52:01.651Z,60.88
2017-10-17T07:52:42.115Z,60.69
2017-10-17T07:53:22.569Z,60.59
2017-10-17T07:54:03.014Z,60.78
2017-10-17T07:54:43.630Z,60.69
2017-10-17T07:55:23.917Z,60.69
2017-10-17T07:56:04.385Z,60.21
2017-10-17T07:56:44.881Z,60.4
2017-10-17T07:57:25.381Z,60.3
2017-10-17T07:58:05.839Z,60.24
2017-10-17T07:58:46.298Z,60.04
2017-10-17T07:59:26.749Z,60.24
2017-10-17T08:00:07.194Z,60.33
2017-10-17T08:00:47.650Z,60.24
2017-10-17T08:01:28.125Z,59.94
2017-10-17T08:02:08.586Z,59.75
2017-10-17T08:02:49.050Z,60.43
2017-10-17T08:03:29.497Z,60.04
2017-10-17T08:04:09.950Z,60.14
2017-10-17T08:04:50.420Z,60.14
2017-10-17T08:05:30.837Z,60.04
2017-10-17T08:06:11.292Z,59.66
2017-10-17T08:06:51.740Z,60.04
2017-10-17T08:07:32.193Z,59.75
2017-10-17T08:08:12.636Z,59.75
2017-10-17T08:08:53.153Z,60.14
2017-10-17T08:09:33.592Z,60.04
2017-10-17T08:10:14.037Z,59.78
2017-10-17T08:10:54.488Z,59.66
2017-10-17T08:11:34.997Z,59.69
2017-10-17T08:12:15.920Z,59.75
2017-10-17T08:12:56.374Z,59.84
2017-10-17T08:13:36.825Z,59.78
2017-10-17T08:14:17.280Z,59.59
2017-10-17T08:14:57.748Z,59.3
2017-10-17T08:15:38.191Z,59.3
2017-10-17T08:16:18.654Z,59.1
2017-10-17T08:16:59.111Z,59.59
2017-10-17T08:17:39.568Z,59.49
2017-10-17T08:18:20.024Z,59.2
2017-10-17T08:19:00.477Z,59.2
2017-10-17T08:19:40.934Z,59.33
2017-10-17T08:20:21.393Z,59
2017-10-17T08:21:01.846Z,58.72
2017-10-17T08:21:42.302Z,58.55
2017-10-17T08:22:22.758Z,58.55
2017-10-17T08:23:03.206Z,58.74
2017-10-17T08:23:43.651Z,58.65
2017-10-17T08:24:24.097Z,58.84
2017-10-17T08:25:04.542Z,58.84
2017-10-17T08:25:44.983Z,58.84
2017-10-17T08:26:25.441Z,58.74
2017-10-17T08:27:05.894Z,58.94
2017-10-17T08:27:46.359Z,58.45
2017-10-17T08:28:26.808Z,58.36
2017-10-17T08:29:07.261Z,58.26
2017-10-17T08:29:47.709Z,58.55
2017-10-17T08:30:28.165Z,58.45
2017-10-17T08:31:08.634Z,58.45
2017-10-17T08:31:49.094Z,58.36
2017-10-17T08:32:29.556Z,58.65
2017-10-17T08:33:10.017Z,58.36
2017-10-17T08:33:50.477Z,58.06
2017-10-17T08:34:30.930Z,58.06
2017-10-17T08:35:11.383Z,58.36
2017-10-17T08:35:51.840Z,58.26
2017-10-17T08:36:32.290Z,57.87
2017-10-17T08:37:12.756Z,57.97
2017-10-17T08:37:53.201Z,58.06
2017-10-17T08:38:33.646Z,58.06
2017-10-17T08:39:14.133Z,58.16
2017-10-17T08:39:54.588Z,57.97
2017-10-17T08:40:35.049Z,57.9
2017-10-17T08:41:15.516Z,57.97
2017-10-17T08:41:55.958Z,57.97
2017-10-17T08:42:36.421Z,58.16
2017-10-17T08:43:16.874Z,58.26
2017-10-17T08:43:57.335Z,58
2017-10-17T08:44:37.801Z,58.19
2017-10-17T08:45:18.260Z,58.06
2017-10-17T08:45:58.709Z,57.8
2017-10-17T08:46:39.155Z,58.09
2017-10-17T08:47:19.617Z,58
2017-10-17T08:48:00.105Z,57.9
2017-10-17T08:48:40.561Z,57.51
2017-10-17T08:49:21.025Z,57.61